sensor_id;sensor_type;location;lat;lon;timestamp;pressure;altitude;pressure_sealevel;temperature;humidity
42691;BME280;28306;55.744;37.578;2023-02-24T00:01:20;99494.75;;;27.31;13.52
42691;BME280;28306;55.744;37.578;2023-02-24T00:03:58;99494.19;;;27.29;13.67
42691;BME280;28306;55.744;37.578;2023-02-24T00:06:25;99493.09;;;27.30;13.46
42691;BME280;28306;55.744;37.578;2023-02-24T00:08:50;99488.47;;;27.31;13.53
42691;BME280;28306;55.744;37.578;2023-02-24T00:11:16;99485.75;;;27.31;13.70
42691;BME280;28306;55.744;37.578;2023-02-24T00:13:43;99481.09;;;27.31;13.45
42691;BME280;28306;55.744;37.578;2023-02-24T00:16:11;99477.53;;;27.31;13.58
42691;BME280;28306;55.744;37.578;2023-02-24T00:18:37;99477.25;;;27.32;13.57
42691;BME280;28306;55.744;37.578;2023-02-24T00:21:07;99480.81;;;27.33;13.50
42691;BME280;28306;55.744;37.578;2023-02-24T00:23:34;99469.88;;;27.33;13.58
42691;BME280;28306;55.744;37.578;2023-02-24T00:26:03;99467.13;;;27.33;13.65
42691;BME280;28306;55.744;37.578;2023-02-24T00:28:29;99456.50;;;27.31;13.60
42691;BME280;28306;55.744;37.578;2023-02-24T00:30:55;99459.22;;;27.31;13.58
42691;BME280;28306;55.744;37.578;2023-02-24T00:33:21;99456.50;;;27.31;13.51
42691;BME280;28306;55.744;37.578;2023-02-24T00:35:49;99449.41;;;27.30;13.74
42691;BME280;28306;55.744;37.578;2023-02-24T00:38:15;99447.50;;;27.31;13.75
42691;BME280;28306;55.744;37.578;2023-02-24T00:40:41;99445.81;;;27.30;13.85
42691;BME280;28306;55.744;37.578;2023-02-24T00:43:10;99434.91;;;27.30;13.64
42691;BME280;28306;55.744;37.578;2023-02-24T00:45:36;99441.19;;;27.30;13.83
42691;BME280;28306;55.744;37.578;2023-02-24T00:48:04;99427.53;;;27.30;13.78
42691;BME280;28306;55.744;37.578;2023-02-24T00:50:29;99428.38;;;27.31;13.72
42691;BME280;28306;55.744;37.578;2023-02-24T00:52:55;99430.00;;;27.32;13.73
42691;BME280;28306;55.744;37.578;2023-02-24T00:55:20;99416.34;;;27.32;13.64
42691;BME280;28306;55.744;37.578;2023-02-24T00:57:47;99409.47;;;27.35;13.66
42691;BME280;28306;55.744;37.578;2023-02-24T01:00:15;99411.13;;;27.36;13.85
42691;BME280;28306;55.744;37.578;2023-02-24T01:02:41;99397.47;;;27.36;13.88
42691;BME280;28306;55.744;37.578;2023-02-24T01:05:09;99392.81;;;27.36;13.69
42691;BME280;28306;55.744;37.578;2023-02-24T01:07:36;99393.09;;;27.35;13.78
42691;BME280;28306;55.744;37.578;2023-02-24T01:10:04;99393.91;;;27.35;13.70
42691;BME280;28306;55.744;37.578;2023-02-24T01:12:33;99393.09;;;27.35;13.66
42691;BME280;28306;55.744;37.578;2023-02-24T01:15:14;99388.44;;;27.35;13.64
42691;BME280;28306;55.744;37.578;2023-02-24T01:17:40;99376.69;;;27.35;13.63
42691;BME280;28306;55.744;37.578;2023-02-24T01:20:09;99375.06;;;27.33;13.79
42691;BME280;28306;55.744;37.578;2023-02-24T01:22:45;99373.16;;;27.34;13.72
42691;BME280;28306;55.744;37.578;2023-02-24T01:25:11;99368.50;;;27.35;13.73
42691;BME280;28306;55.744;37.578;2023-02-24T01:27:36;99355.66;;;27.35;13.83
42691;BME280;28306;55.744;37.578;2023-02-24T01:30:07;99360.03;;;27.36;13.83
42691;BME280;28306;55.744;37.578;2023-02-24T01:32:33;99352.63;;;27.37;13.71
42691;BME280;28306;55.744;37.578;2023-02-24T01:34:59;99359.72;;;27.38;13.92
42691;BME280;28306;55.744;37.578;2023-02-24T01:37:24;99360.25;;;27.40;13.95
42691;BME280;28306;55.744;37.578;2023-02-24T01:39:50;99351.25;;;27.39;13.75
42691;BME280;28306;55.744;37.578;2023-02-24T01:42:17;99346.59;;;27.40;13.86
42691;BME280;28306;55.744;37.578;2023-02-24T01:47:11;99342.53;;;27.37;13.67
42691;BME280;28306;55.744;37.578;2023-02-24T01:49:41;99338.97;;;27.37;13.82
42691;BME280;28306;55.744;37.578;2023-02-24T01:57:19;99323.94;;;27.39;13.73
42691;BME280;28306;55.744;37.578;2023-02-24T01:59:49;99318.19;;;27.41;13.97
42691;BME280;28306;55.744;37.578;2023-02-24T02:02:15;99302.88;;;27.40;13.84
42691;BME280;28306;55.744;37.578;2023-02-24T02:07:09;99309.69;;;27.42;13.83
42691;BME280;28306;55.744;37.578;2023-02-24T02:09:37;99308.59;;;27.43;13.63
42691;BME280;28306;55.744;37.578;2023-02-24T02:12:02;99302.31;;;27.43;13.96
42691;BME280;28306;55.744;37.578;2023-02-24T02:14:28;99293.28;;;27.42;13.85
42691;BME280;28306;55.744;37.578;2023-02-24T02:22:25;99288.13;;;27.41;13.83
42691;BME280;28306;55.744;37.578;2023-02-24T02:24:58;99279.94;;;27.41;13.78
42691;BME280;28306;55.744;37.578;2023-02-24T02:32:41;99264.34;;;27.41;13.83
42691;BME280;28306;55.744;37.578;2023-02-24T02:35:26;99260.50;;;27.42;13.95
42691;BME280;28306;55.744;37.578;2023-02-24T02:37:58;99248.50;;;27.43;13.91
42691;BME280;28306;55.744;37.578;2023-02-24T02:40:32;99252.81;;;27.44;13.76
42691;BME280;28306;55.744;37.578;2023-02-24T02:43:13;99244.63;;;27.44;13.95
42691;BME280;28306;55.744;37.578;2023-02-24T02:45:45;99245.19;;;27.46;13.81
42691;BME280;28306;55.744;37.578;2023-02-24T02:48:17;99242.44;;;27.46;13.84
42691;BME280;28306;55.744;37.578;2023-02-24T02:50:47;99226.34;;;27.45;13.75
42691;BME280;28306;55.744;37.578;2023-02-24T02:53:24;99227.16;;;27.45;13.85
42691;BME280;28306;55.744;37.578;2023-02-24T02:56:02;99218.94;;;27.45;13.74
42691;BME280;28306;55.744;37.578;2023-02-24T02:58:33;99215.41;;;27.45;13.85
42691;BME280;28306;55.744;37.578;2023-02-24T03:01:00;99212.69;;;27.45;14.04
42691;BME280;28306;55.744;37.578;2023-02-24T03:03:32;99201.47;;;27.46;13.89
42691;BME280;28306;55.744;37.578;2023-02-24T03:06:01;99187.81;;;27.46;13.94
42691;BME280;28306;55.744;37.578;2023-02-24T03:08:28;99182.34;;;27.46;13.78
42691;BME280;28306;55.744;37.578;2023-02-24T03:10:59;99172.22;;;27.47;14.10
42691;BME280;28306;55.744;37.578;2023-02-24T03:13:26;99178.47;;;27.47;13.97
42691;BME280;28306;55.744;37.578;2023-02-24T03:15:56;99169.19;;;27.48;13.76
42691;BME280;28306;55.744;37.578;2023-02-24T03:18:26;99167.25;;;27.49;13.77
42691;BME280;28306;55.744;37.578;2023-02-24T03:20:56;99159.88;;;27.49;14.08
42691;BME280;28306;55.744;37.578;2023-02-24T03:23:24;99154.44;;;27.49;13.81
42691;BME280;28306;55.744;37.578;2023-02-24T03:28:20;99149.75;;;27.50;14.13
42691;BME280;28306;55.744;37.578;2023-02-24T03:30:59;99133.38;;;27.50;13.83
42691;BME280;28306;55.744;37.578;2023-02-24T03:33:40;99127.91;;;27.50;13.86
42691;BME280;28306;55.744;37.578;2023-02-24T03:36:09;99119.72;;;27.50;14.15
42691;BME280;28306;55.744;37.578;2023-02-24T03:38:39;99111.50;;;27.50;14.12
42691;BME280;28306;55.744;37.578;2023-02-24T03:41:06;99105.25;;;27.49;14.07
42691;BME280;28306;55.744;37.578;2023-02-24T03:43:39;99095.13;;;27.50;14.01
42691;BME280;28306;55.744;37.578;2023-02-24T03:46:09;99095.13;;;27.50;13.96
42691;BME280;28306;55.744;37.578;2023-02-24T03:48:37;99084.19;;;27.50;13.82
42691;BME280;28306;55.744;37.578;2023-02-24T03:51:09;99089.66;;;27.50;13.81
42691;BME280;28306;55.744;37.578;2023-02-24T03:56:24;99077.91;;;27.49;14.00
42691;BME280;28306;55.744;37.578;2023-02-24T04:04:36;99071.34;;;27.50;14.18
42691;BME280;28306;55.744;37.578;2023-02-24T04:09:44;99063.97;;;27.51;13.96
42691;BME280;28306;55.744;37.578;2023-02-24T04:12:25;99045.13;;;27.49;14.21
42691;BME280;28306;55.744;37.578;2023-02-24T04:15:10;99047.88;;;27.49;13.86
42691;BME280;28306;55.744;37.578;2023-02-24T04:20:04;99037.25;;;27.48;13.84
42691;BME280;28306;55.744;37.578;2023-02-24T04:22:42;99034.50;;;27.48;13.88
42691;BME280;28306;55.744;37.578;2023-02-24T04:25:08;99029.03;;;27.48;13.97
42691;BME280;28306;55.744;37.578;2023-02-24T04:27:40;99029.03;;;27.48;14.03
42691;BME280;28306;55.744;37.578;2023-02-24T04:30:12;99016.97;;;27.49;13.83
42691;BME280;28306;55.744;37.578;2023-02-24T04:32:38;99027.09;;;27.48;14.04
42691;BME280;28306;55.744;37.578;2023-02-24T04:35:08;99027.09;;;27.48;13.81
42691;BME280;28306;55.744;37.578;2023-02-24T04:37:38;99020.53;;;27.49;13.97
42691;BME280;28306;55.744;37.578;2023-02-24T04:40:05;99023.28;;;27.49;14.03
42691;BME280;28306;55.744;37.578;2023-02-24T04:42:38;99016.97;;;27.49;14.03
42691;BME280;28306;55.744;37.578;2023-02-24T04:47:45;99019.41;;;27.50;13.86
42691;BME280;28306;55.744;37.578;2023-02-24T04:50:13;99020.25;;;27.51;14.12
42691;BME280;28306;55.744;37.578;2023-02-24T04:53:09;99013.66;;;27.52;13.88
42691;BME280;28306;55.744;37.578;2023-02-24T04:55:35;99005.47;;;27.52;14.16
42691;BME280;28306;55.744;37.578;2023-02-24T04:58:04;99012.56;;;27.53;14.02
42691;BME280;28306;55.744;37.578;2023-02-24T05:00:30;98999.19;;;27.51;14.07
42691;BME280;28306;55.744;37.578;2023-02-24T05:03:00;99001.94;;;27.51;13.99
42691;BME280;28306;55.744;37.578;2023-02-24T05:05:26;98999.19;;;27.51;14.29
42691;BME280;28306;55.744;37.578;2023-02-24T05:07:53;98991.00;;;27.51;13.82
42691;BME280;28306;55.744;37.578;2023-02-24T05:10:19;98992.63;;;27.53;14.08
42691;BME280;28306;55.744;37.578;2023-02-24T05:12:44;98988.75;;;27.54;14.02
42691;BME280;28306;55.744;37.578;2023-02-24T05:15:10;98974.00;;;27.55;14.09
42691;BME280;28306;55.744;37.578;2023-02-24T05:17:39;98958.72;;;27.54;14.08
42691;BME280;28306;55.744;37.578;2023-02-24T05:20:06;98957.09;;;27.53;13.84
42691;BME280;28306;55.744;37.578;2023-02-24T05:22:50;98962.28;;;27.54;14.24
42691;BME280;28306;55.744;37.578;2023-02-24T05:25:18;98961.16;;;27.55;14.08
42691;BME280;28306;55.744;37.578;2023-02-24T05:27:44;98964.72;;;27.56;14.08
42691;BME280;28306;55.744;37.578;2023-02-24T05:30:11;98945.56;;;27.56;13.86
42691;BME280;28306;55.744;37.578;2023-02-24T05:32:38;98949.91;;;27.57;14.00
42691;BME280;28306;55.744;37.578;2023-02-24T05:35:04;98943.66;;;27.56;13.95
42691;BME280;28306;55.744;37.578;2023-02-24T05:37:30;98948.81;;;27.58;13.95
42691;BME280;28306;55.744;37.578;2023-02-24T05:39:58;98943.34;;;27.58;14.12
42691;BME280;28306;55.744;37.578;2023-02-24T05:42:24;98935.16;;;27.58;13.87
42691;BME280;28306;55.744;37.578;2023-02-24T05:44:50;98934.03;;;27.59;14.02
42691;BME280;28306;55.744;37.578;2023-02-24T05:47:15;98929.38;;;27.59;13.85
42691;BME280;28306;55.744;37.578;2023-02-24T05:49:44;98928.28;;;27.60;14.10
42691;BME280;28306;55.744;37.578;2023-02-24T05:52:12;98929.09;;;27.61;14.10
42691;BME280;28306;55.744;37.578;2023-02-24T05:54:42;98926.34;;;27.61;13.97
42691;BME280;28306;55.744;37.578;2023-02-24T05:57:11;98917.34;;;27.60;14.07
42691;BME280;28306;55.744;37.578;2023-02-24T05:59:38;98910.75;;;27.61;14.13
42691;BME280;28306;55.744;37.578;2023-02-24T06:02:04;98909.97;;;27.61;14.14
42691;BME280;28306;55.744;37.578;2023-02-24T06:04:39;98902.56;;;27.61;13.98
42691;BME280;28306;55.744;37.578;2023-02-24T06:07:14;98907.72;;;27.63;13.95
42691;BME280;28306;55.744;37.578;2023-02-24T06:09:46;98900.66;;;27.62;14.11
42691;BME280;28306;55.744;37.578;2023-02-24T06:12:14;98894.38;;;27.61;14.19
42691;BME280;28306;55.744;37.578;2023-02-24T06:14:43;98902.25;;;27.63;14.13
42691;BME280;28306;55.744;37.578;2023-02-24T06:17:09;98892.97;;;27.64;13.94
42691;BME280;28306;55.744;37.578;2023-02-24T06:19:35;98882.03;;;27.64;13.90
42691;BME280;28306;55.744;37.578;2023-02-24T06:22:01;98889.44;;;27.63;13.91
42691;BME280;28306;55.744;37.578;2023-02-24T06:24:27;98882.81;;;27.64;14.19
42691;BME280;28306;55.744;37.578;2023-02-24T06:26:53;98882.81;;;27.64;13.92
42691;BME280;28306;55.744;37.578;2023-02-24T06:29:22;98882.81;;;27.64;14.20
42691;BME280;28306;55.744;37.578;2023-02-24T06:31:53;98884.75;;;27.64;13.86
42691;BME280;28306;55.744;37.578;2023-02-24T06:34:19;98873.81;;;27.64;13.86
42691;BME280;28306;55.744;37.578;2023-02-24T06:36:45;98869.16;;;27.64;14.00
42691;BME280;28306;55.744;37.578;2023-02-24T06:39:13;98856.34;;;27.65;14.24
42691;BME280;28306;55.744;37.578;2023-02-24T06:41:38;98857.13;;;27.65;14.05
42691;BME280;28306;55.744;37.578;2023-02-24T06:44:04;98850.88;;;27.65;13.92
42691;BME280;28306;55.744;37.578;2023-02-24T06:46:29;98850.88;;;27.65;13.93
42691;BME280;28306;55.744;37.578;2023-02-24T06:48:55;98846.19;;;27.65;13.97
42691;BME280;28306;55.744;37.578;2023-02-24T06:51:22;98839.59;;;27.66;13.98
42691;BME280;28306;55.744;37.578;2023-02-24T06:53:50;98841.53;;;27.66;14.10
42691;BME280;28306;55.744;37.578;2023-02-24T06:56:16;98838.50;;;27.67;13.99
42691;BME280;28306;55.744;37.578;2023-02-24T06:58:48;98831.94;;;27.68;14.02
42691;BME280;28306;55.744;37.578;2023-02-24T07:01:15;98827.25;;;27.69;14.00
42691;BME280;28306;55.744;37.578;2023-02-24T07:03:41;98827.25;;;27.69;13.97
42691;BME280;28306;55.744;37.578;2023-02-24T07:06:11;98817.97;;;27.70;13.99
42691;BME280;28306;55.744;37.578;2023-02-24T07:08:51;98821.78;;;27.69;14.04
42691;BME280;28306;55.744;37.578;2023-02-24T07:11:17;98809.75;;;27.70;14.17
42691;BME280;28306;55.744;37.578;2023-02-24T07:13:44;98799.63;;;27.71;14.13
42691;BME280;28306;55.744;37.578;2023-02-24T07:16:12;98801.56;;;27.70;14.03
42691;BME280;28306;55.744;37.578;2023-02-24T07:18:40;98804.28;;;27.70;14.00
42691;BME280;28306;55.744;37.578;2023-02-24T07:21:07;98802.34;;;27.71;14.05
42691;BME280;28306;55.744;37.578;2023-02-24T07:23:39;98787.91;;;27.70;14.06
42691;BME280;28306;55.744;37.578;2023-02-24T07:26:09;98790.31;;;27.72;13.97
42691;BME280;28306;55.744;37.578;2023-02-24T07:28:36;98785.66;;;27.72;14.17
42691;BME280;28306;55.744;37.578;2023-02-24T07:31:07;98782.94;;;27.72;14.05
42691;BME280;28306;55.744;37.578;2023-02-24T07:33:34;98779.09;;;27.73;13.93
42691;BME280;28306;55.744;37.578;2023-02-24T07:36:01;98786.97;;;27.75;13.90
42691;BME280;28306;55.744;37.578;2023-02-24T07:38:35;98773.00;;;27.76;14.22
42691;BME280;28306;55.744;37.578;2023-02-24T07:41:01;98773.00;;;27.76;14.23
42691;BME280;28306;55.744;37.578;2023-02-24T07:43:27;98769.16;;;27.77;14.17
42691;BME280;28306;55.744;37.578;2023-02-24T07:45:52;98772.72;;;27.78;14.02
42691;BME280;28306;55.744;37.578;2023-02-24T07:48:18;98768.03;;;27.78;14.05
42691;BME280;28306;55.744;37.578;2023-02-24T07:50:45;98768.03;;;27.78;14.10
42691;BME280;28306;55.744;37.578;2023-02-24T07:53:10;98756.00;;;27.79;14.16
42691;BME280;28306;55.744;37.578;2023-02-24T07:55:36;98759.53;;;27.80;14.08
42691;BME280;28306;55.744;37.578;2023-02-24T07:58:01;98754.06;;;27.80;13.89
42691;BME280;28306;55.744;37.578;2023-02-24T08:00:29;98757.59;;;27.80;13.90
42691;BME280;28306;55.744;37.578;2023-02-24T08:03:09;98749.41;;;27.80;14.01
42691;BME280;28306;55.744;37.578;2023-02-24T08:05:35;98749.09;;;27.82;14.13
42691;BME280;28306;55.744;37.578;2023-02-24T08:08:00;98748.78;;;27.83;13.98
42691;BME280;28306;55.744;37.578;2023-02-24T08:10:27;98746.88;;;27.84;14.25
42691;BME280;28306;55.744;37.578;2023-02-24T08:12:59;98745.75;;;27.85;14.17
42691;BME280;28306;55.744;37.578;2023-02-24T08:15:27;98738.38;;;27.85;14.10
42691;BME280;28306;55.744;37.578;2023-02-24T08:17:58;98741.09;;;27.85;14.04
42691;BME280;28306;55.744;37.578;2023-02-24T08:20:24;98732.06;;;27.85;14.04
42691;BME280;28306;55.744;37.578;2023-02-24T08:22:51;98731.28;;;27.84;14.09
42691;BME280;28306;55.744;37.578;2023-02-24T08:25:18;98736.44;;;27.86;14.04
42691;BME280;28306;55.744;37.578;2023-02-24T08:27:48;98734.50;;;27.86;13.96
42691;BME280;28306;55.744;37.578;2023-02-24T08:30:20;98732.59;;;27.87;14.23
42691;BME280;28306;55.744;37.578;2023-02-24T08:32:50;98724.09;;;27.89;13.89
42691;BME280;28306;55.744;37.578;2023-02-24T08:35:22;98728.72;;;27.88;14.09
42691;BME280;28306;55.744;37.578;2023-02-24T08:37:51;98724.09;;;27.89;14.13
42691;BME280;28306;55.744;37.578;2023-02-24T08:40:24;98721.34;;;27.89;14.03
42691;BME280;28306;55.744;37.578;2023-02-24T08:42:59;98722.47;;;27.87;13.92
42691;BME280;28306;55.744;37.578;2023-02-24T08:45:43;98713.97;;;27.89;14.08
42691;BME280;28306;55.744;37.578;2023-02-24T08:48:13;98713.66;;;27.91;14.00
42691;BME280;28306;55.744;37.578;2023-02-24T08:50:56;98705.44;;;27.91;14.14
42691;BME280;28306;55.744;37.578;2023-02-24T08:53:23;98706.25;;;27.91;13.99
42691;BME280;28306;55.744;37.578;2023-02-24T08:55:53;98699.38;;;27.94;14.20
42691;BME280;28306;55.744;37.578;2023-02-24T08:58:19;98704.84;;;27.94;14.13
42691;BME280;28306;55.744;37.578;2023-02-24T09:01:00;98708.09;;;27.96;14.18
42691;BME280;28306;55.744;37.578;2023-02-24T09:03:28;98705.03;;;27.97;14.08
42691;BME280;28306;55.744;37.578;2023-02-24T09:05:58;98700.41;;;27.98;14.00
42691;BME280;28306;55.744;37.578;2023-02-24T09:08:24;98705.03;;;27.97;14.11
42691;BME280;28306;55.744;37.578;2023-02-24T09:11:00;98702.31;;;27.97;14.02
42691;BME280;28306;55.744;37.578;2023-02-24T09:13:41;98700.41;;;27.98;14.12
42691;BME280;28306;55.744;37.578;2023-02-24T09:16:19;98693.78;;;27.99;13.94
42691;BME280;28306;55.744;37.578;2023-02-24T09:18:44;98687.53;;;27.98;14.04
42691;BME280;28306;55.744;37.578;2023-02-24T09:21:13;98686.41;;;27.99;14.01
42691;BME280;28306;55.744;37.578;2023-02-24T09:23:41;98688.03;;;28.00;14.24
42691;BME280;28306;55.744;37.578;2023-02-24T09:26:16;98681.75;;;28.00;13.89
42691;BME280;28306;55.744;37.578;2023-02-24T09:28:44;98677.88;;;28.01;13.97
42691;BME280;28306;55.744;37.578;2023-02-24T09:31:13;98678.72;;;28.01;13.90
42691;BME280;28306;55.744;37.578;2023-02-24T09:33:41;98666.94;;;28.01;14.22
42691;BME280;28306;55.744;37.578;2023-02-24T09:36:08;98671.31;;;28.02;14.17
42691;BME280;28306;55.744;37.578;2023-02-24T09:38:38;98665.84;;;28.02;14.11
42691;BME280;28306;55.744;37.578;2023-02-24T09:41:44;98661.16;;;28.02;14.23
42691;BME280;28306;55.744;37.578;2023-02-24T09:47:40;98654.91;;;28.02;13.98
42691;BME280;28306;55.744;37.578;2023-02-24T09:52:56;98653.78;;;28.03;14.09
42691;BME280;28306;55.744;37.578;2023-02-24T09:55:56;98641.72;;;28.04;13.88
42691;BME280;28306;55.744;37.578;2023-02-24T10:06:32;98621.94;;;28.07;14.03
42691;BME280;28306;55.744;37.578;2023-02-24T10:09:02;98620.03;;;28.08;13.96
42691;BME280;28306;55.744;37.578;2023-02-24T10:11:43;98627.44;;;28.07;14.12
42691;BME280;28306;55.744;37.578;2023-02-24T10:16:46;98609.91;;;28.08;14.25
42691;BME280;28306;55.744;37.578;2023-02-24T10:19:33;98612.34;;;28.10;14.21
42691;BME280;28306;55.744;37.578;2023-02-24T10:22:00;98601.41;;;28.10;14.24
42691;BME280;28306;55.744;37.578;2023-02-24T10:24:37;98594.81;;;28.11;14.03
42691;BME280;28306;55.744;37.578;2023-02-24T10:27:10;98597.25;;;28.12;14.21
42691;BME280;28306;55.744;37.578;2023-02-24T10:32:41;98586.63;;;28.11;14.12
42691;BME280;28306;55.744;37.578;2023-02-24T10:35:14;98580.84;;;28.12;14.23
42691;BME280;28306;55.744;37.578;2023-02-24T10:37:40;98581.69;;;28.21;14.00
42691;BME280;28306;55.744;37.578;2023-02-24T10:40:06;98575.44;;;28.30;14.13
42691;BME280;28306;55.744;37.578;2023-02-24T10:42:38;98568.41;;;28.37;13.95
42691;BME280;28306;55.744;37.578;2023-02-24T10:45:11;98572.94;;;28.42;13.80
42691;BME280;28306;55.744;37.578;2023-02-24T10:47:38;98573.09;;;28.46;13.97
42691;BME280;28306;55.744;37.578;2023-02-24T10:50:42;98565.06;;;28.49;13.89
42691;BME280;28306;55.744;37.578;2023-02-24T10:53:10;98558.94;;;28.52;14.03
42691;BME280;28306;55.744;37.578;2023-02-24T10:55:50;98554.78;;;28.55;13.95
42691;BME280;28306;55.744;37.578;2023-02-24T10:58:29;98558.84;;;28.57;14.04
42691;BME280;28306;55.744;37.578;2023-02-24T11:01:16;98559.66;;;28.58;14.02
42691;BME280;28306;55.744;37.578;2023-02-24T11:04:07;98554.97;;;28.58;14.04
42691;BME280;28306;55.744;37.578;2023-02-24T11:07:14;98555.81;;;28.59;14.08
42691;BME280;28306;55.744;37.578;2023-02-24T11:10:07;98550.03;;;28.61;14.32
42691;BME280;28306;55.744;37.578;2023-02-24T11:12:37;98546.97;;;28.62;13.94
42691;BME280;28306;55.744;37.578;2023-02-24T11:15:29;98543.09;;;28.63;14.22
42691;BME280;28306;55.744;37.578;2023-02-24T11:18:20;98547.75;;;28.63;13.97
42691;BME280;28306;55.744;37.578;2023-02-24T11:20:49;98546.97;;;28.62;14.14
42691;BME280;28306;55.744;37.578;2023-02-24T11:23:19;98551.28;;;28.63;14.08
42691;BME280;28306;55.744;37.578;2023-02-24T11:25:47;98532.13;;;28.63;14.13
42691;BME280;28306;55.744;37.578;2023-02-24T11:33:44;98519.28;;;28.64;14.13
42691;BME280;28306;55.744;37.578;2023-02-24T11:39:12;98504.78;;;28.63;14.33
42691;BME280;28306;55.744;37.578;2023-02-24T11:41:48;98506.41;;;28.64;14.38
42691;BME280;28306;55.744;37.578;2023-02-24T11:47:02;98509.59;;;28.66;14.47
42691;BME280;28306;55.744;37.578;2023-02-24T11:52:18;98501.72;;;28.65;14.50
42691;BME280;28306;55.744;37.578;2023-02-24T11:54:47;98496.25;;;28.65;14.37
42691;BME280;28306;55.744;37.578;2023-02-24T11:57:37;98501.25;;;28.63;14.62
42691;BME280;28306;55.744;37.578;2023-02-24T12:00:17;98499.63;;;28.62;14.28
42691;BME280;28306;55.744;37.578;2023-02-24T12:02:56;98498.03;;;28.61;14.35
42691;BME280;28306;55.744;37.578;2023-02-24T12:05:25;98497.50;;;28.58;14.66
42691;BME280;28306;55.744;37.578;2023-02-24T12:08:02;98492.34;;;28.57;14.30
42691;BME280;28306;55.744;37.578;2023-02-24T12:20:40;98480.91;;;28.55;14.46
42691;BME280;28306;55.744;37.578;2023-02-24T12:31:29;98469.47;;;28.53;14.45
42691;BME280;28306;55.744;37.578;2023-02-24T12:41:57;98460.97;;;28.54;14.85
42691;BME280;28306;55.744;37.578;2023-02-24T12:47:05;98453.84;;;28.53;14.70
42691;BME280;28306;55.744;37.578;2023-02-24T12:54:43;98456.59;;;28.53;14.55
42691;BME280;28306;55.744;37.578;2023-02-24T13:02:49;98452.75;;;28.54;14.71
42691;BME280;28306;55.744;37.578;2023-02-24T13:05:22;98450.00;;;28.54;14.62
42691;BME280;28306;55.744;37.578;2023-02-24T13:15:21;98429.72;;;28.55;14.66
42691;BME280;28306;55.744;37.578;2023-02-24T13:17:48;98426.97;;;28.55;14.57
42691;BME280;28306;55.744;37.578;2023-02-24T13:20:32;98429.72;;;28.55;14.47
42691;BME280;28306;55.744;37.578;2023-02-24T13:22:58;98427.28;;;28.54;14.70
42691;BME280;28306;55.744;37.578;2023-02-24T13:25:28;98419.09;;;28.54;14.75
42691;BME280;28306;55.744;37.578;2023-02-24T13:27:58;98420.72;;;28.55;14.56
42691;BME280;28306;55.744;37.578;2023-02-24T13:30:29;98416.34;;;28.54;14.62
42691;BME280;28306;55.744;37.578;2023-02-24T13:35:29;98415.56;;;28.53;14.42
42691;BME280;28306;55.744;37.578;2023-02-24T13:38:05;98410.09;;;28.53;14.41
42691;BME280;28306;55.744;37.578;2023-02-24T13:40:31;98411.19;;;28.52;14.36
42691;BME280;28306;55.744;37.578;2023-02-24T13:45:31;98410.41;;;28.52;14.45
42691;BME280;28306;55.744;37.578;2023-02-24T13:50:30;98406.88;;;28.51;14.45
42691;BME280;28306;55.744;37.578;2023-02-24T13:55:45;98395.94;;;28.51;14.54
42691;BME280;28306;55.744;37.578;2023-02-24T13:58:19;98394.78;;;28.52;14.50
42691;BME280;28306;55.744;37.578;2023-02-24T14:03:23;98388.50;;;28.52;14.65
42691;BME280;28306;55.744;37.578;2023-02-24T14:05:49;98380.63;;;28.50;14.49
42691;BME280;28306;55.744;37.578;2023-02-24T14:08:20;98392.38;;;28.51;14.52
42691;BME280;28306;55.744;37.578;2023-02-24T14:10:48;98391.25;;;28.52;14.30
42691;BME280;28306;55.744;37.578;2023-02-24T14:13:18;98396.72;;;28.52;14.63
42691;BME280;28306;55.744;37.578;2023-02-24T14:15:46;98387.72;;;28.51;14.40
42691;BME280;28306;55.744;37.578;2023-02-24T14:18:16;98390.44;;;28.51;14.73
42691;BME280;28306;55.744;37.578;2023-02-24T14:20:42;98393.66;;;28.53;14.68
42691;BME280;28306;55.744;37.578;2023-02-24T14:23:21;98383.84;;;28.52;14.56
42691;BME280;28306;55.744;37.578;2023-02-24T14:25:48;98387.72;;;28.51;14.67
42691;BME280;28306;55.744;37.578;2023-02-24T14:28:24;98387.72;;;28.51;14.47
42691;BME280;28306;55.744;37.578;2023-02-24T14:30:55;98388.50;;;28.52;14.62
42691;BME280;28306;55.744;37.578;2023-02-24T14:33:25;98379.50;;;28.51;14.46
42691;BME280;28306;55.744;37.578;2023-02-24T14:35:51;98386.09;;;28.50;14.68
42691;BME280;28306;55.744;37.578;2023-02-24T14:38:31;98385.78;;;28.52;14.69
42691;BME280;28306;55.744;37.578;2023-02-24T14:40:56;98362.41;;;28.37;14.46
42691;BME280;28306;55.744;37.578;2023-02-24T14:43:22;98385.31;;;28.50;14.79
42691;BME280;28306;55.744;37.578;2023-02-24T14:45:48;98377.09;;;28.50;14.66
42691;BME280;28306;55.744;37.578;2023-02-24T14:48:27;98390.78;;;28.50;14.78
42691;BME280;28306;55.744;37.578;2023-02-24T14:50:57;98384.47;;;28.49;14.66
42691;BME280;28306;55.744;37.578;2023-02-24T14:53:26;98384.47;;;28.49;14.61
42691;BME280;28306;55.744;37.578;2023-02-24T14:55:54;98387.22;;;28.49;14.87
42691;BME280;28306;55.744;37.578;2023-02-24T14:58:26;98383.69;;;28.49;14.65
42691;BME280;28306;55.744;37.578;2023-02-24T15:01:29;98382.88;;;28.48;14.86
42691;BME280;28306;55.744;37.578;2023-02-24T15:03:50;98373.84;;;28.48;14.84
42691;BME280;28306;55.744;37.578;2023-02-24T15:06:28;98386.72;;;28.47;14.71
42691;BME280;28306;55.744;37.578;2023-02-24T15:08:56;98379.66;;;28.46;14.81
42691;BME280;28306;55.744;37.578;2023-02-24T15:11:26;98380.47;;;28.47;14.78
42691;BME280;28306;55.744;37.578;2023-02-24T15:14:03;98387.06;;;28.46;14.87
42691;BME280;28306;55.744;37.578;2023-02-24T15:16:35;98384.31;;;28.46;14.68
42691;BME280;28306;55.744;37.578;2023-02-24T15:19:01;98386.25;;;28.45;15.06
42691;BME280;28306;55.744;37.578;2023-02-24T15:21:28;98382.69;;;28.45;14.74